createdAt,value
2023-01-13T00:00:24.225Z,99918.31
2023-01-13T00:02:26.409Z,99926.56
2023-01-13T00:04:28.613Z,99927.72
2023-01-13T00:06:30.950Z,99920.59
2023-01-13T00:08:33.463Z,99910.41
2023-01-13T00:10:35.759Z,99916.72
2023-01-13T00:12:44.156Z,99923.00
2023-01-13T00:14:46.296Z,99918.00
2023-01-13T00:16:48.397Z,99900.50
2023-01-13T00:18:51.416Z,99910.06
2023-01-13T00:21:05.231Z,99898.59
2023-01-13T00:23:07.350Z,99917.84
2023-01-13T00:25:09.650Z,99912.66
2023-01-13T00:27:11.878Z,99906.34
2023-01-13T00:29:13.974Z,99885.13
2023-01-13T00:31:18.919Z,99888.69
2023-01-13T00:33:21.299Z,99899.22
2023-01-13T00:35:23.448Z,99882.06
2023-01-13T00:37:26.112Z,99929.97
2023-01-13T00:39:28.293Z,99895.81
2023-01-13T00:41:50.394Z,99896.13
2023-01-13T00:43:52.647Z,99876.09
2023-01-13T00:45:55.355Z,99885.94
2023-01-13T00:47:57.417Z,99892.25
2023-01-13T00:49:59.582Z,99870.25
2023-01-13T00:52:01.696Z,99884.81
2023-01-13T00:54:03.906Z,99867.97
2023-01-13T00:56:10.047Z,99885.28
2023-01-13T00:58:12.249Z,99877.56
2023-01-13T01:00:14.849Z,99868.78
2023-01-13T01:02:17.107Z,99879.16
2023-01-13T01:04:22.121Z,99876.41
2023-01-13T01:06:26.089Z,99868.00
2023-01-13T01:08:28.225Z,99854.06
2023-01-13T01:10:30.560Z,99855.69
2023-01-13T01:12:32.741Z,99863.63
2023-01-13T01:14:34.910Z,99858.94
2023-01-13T01:16:38.815Z,99856.16
2023-01-13T01:18:44.159Z,99870.75
2023-01-13T01:20:46.292Z,99836.25
2023-01-13T01:22:48.487Z,99839.81
2023-01-13T01:24:50.646Z,99839.47
2023-01-13T01:26:52.785Z,99830.09
2023-01-13T01:28:55.161Z,99844.69
2023-01-13T01:30:59.811Z,99833.66
2023-01-13T01:33:03.306Z,99838.66
2023-01-13T01:35:06.086Z,99833.16
2023-01-13T01:37:08.259Z,99836.56
2023-01-13T01:39:10.545Z,99818.47
2023-01-13T01:41:22.384Z,99826.72
2023-01-13T01:44:04.310Z,99827.66
2023-01-13T01:46:06.524Z,99840.13
2023-01-13T01:48:11.388Z,99811.97
2023-01-13T01:50:13.609Z,99824.28
2023-01-13T01:52:29.867Z,99811.31
2023-01-13T01:54:57.377Z,99802.59
2023-01-13T01:56:59.439Z,99796.75
2023-01-13T01:59:01.528Z,99792.84
2023-01-13T02:01:04.006Z,99801.63
2023-01-13T02:03:06.382Z,99789.28
2023-01-13T02:05:08.939Z,99797.72
2023-01-13T02:07:11.121Z,99801.94
2023-01-13T02:09:13.286Z,99800.16
2023-01-13T02:11:53.748Z,99793.34
2023-01-13T02:13:58.435Z,99811.47
2023-01-13T02:16:09.197Z,99790.72
2023-01-13T02:18:54.758Z,99783.78
2023-01-13T02:21:02.945Z,99773.25
2023-01-13T02:23:52.977Z,99791.72
2023-01-13T02:26:13.008Z,99774.06
2023-01-13T02:29:05.237Z,99799.16
2023-01-13T02:31:30.248Z,99785.06
2023-01-13T02:33:41.446Z,99793.00
2023-01-13T02:36:10.958Z,99799.31
2023-01-13T02:38:13.715Z,99796.91
2023-01-13T02:40:25.399Z,99778.09
2023-01-13T02:42:53.922Z,99802.41
2023-01-13T02:45:27.030Z,99783.59
2023-01-13T02:47:29.947Z,99766.78
2023-01-13T02:49:43.780Z,99765.97
2023-01-13T02:51:48.957Z,99781.31
2023-01-13T02:54:09.803Z,99765.63
2023-01-13T02:56:11.887Z,99771.94
2023-01-13T02:58:19.156Z,99794.16
2023-01-13T03:00:21.324Z,99767.09
2023-01-13T03:02:26.324Z,99794.63
2023-01-13T03:04:50.705Z,99760.31
2023-01-13T03:07:01.827Z,99769.84
2023-01-13T03:09:31.610Z,99803.53
2023-01-13T03:11:41.481Z,99765.31
2023-01-13T03:14:30.498Z,99765.00
2023-01-13T03:17:05.702Z,99773.25
2023-01-13T03:19:33.155Z,99763.88
2023-01-13T03:22:01.909Z,99746.53
2023-01-13T03:24:20.912Z,99753.50
2023-01-13T03:26:32.014Z,99798.34
2023-01-13T03:28:40.945Z,99762.25
2023-01-13T03:30:54.087Z,99750.41
2023-01-13T03:33:34.520Z,99768.88
2023-01-13T03:35:45.968Z,99780.38
2023-01-13T03:37:56.295Z,99758.34
2023-01-13T03:40:06.885Z,99745.88
2023-01-13T03:42:18.907Z,99747.34
2023-01-13T03:44:34.073Z,99751.69
2023-01-13T03:46:49.601Z,99758.00
2023-01-13T03:48:53.088Z,99754.94
2023-01-13T03:50:57.665Z,99750.91
2023-01-13T03:53:10.740Z,99751.22
2023-01-13T03:55:16.462Z,99757.53
2023-01-13T03:57:20.223Z,99755.25
2023-01-13T03:59:32.137Z,99747.50
2023-01-13T04:01:51.014Z,99763.53
2023-01-13T04:04:09.525Z,99765.97
2023-01-13T04:07:07.607Z,99771.78
2023-01-13T04:09:39.282Z,99763.53
2023-01-13T04:12:12.911Z,99764.81
2023-01-13T04:14:15.016Z,99759.78
2023-01-13T04:16:17.164Z,99743.59
2023-01-13T04:18:23.711Z,99746.19
2023-01-13T04:20:25.855Z,99749.09
2023-01-13T04:22:36.983Z,99742.78
2023-01-13T04:24:47.915Z,99733.41
2023-01-13T04:26:52.581Z,99797.84
2023-01-13T04:28:55.487Z,99733.41
2023-01-13T04:30:57.839Z,99742.78
2023-01-13T04:33:00.001Z,99737.28
2023-01-13T04:35:02.050Z,99774.22
2023-01-13T04:37:04.106Z,99757.84
2023-01-13T04:39:06.195Z,99737.44
2023-01-13T04:41:11.486Z,99755.88
2023-01-13T04:43:16.466Z,99760.59
2023-01-13T04:45:24.384Z,99747.31
2023-01-13T04:47:27.340Z,99743.09
2023-01-13T04:49:29.489Z,99757.19
2023-01-13T04:51:31.543Z,99769.00
2023-01-13T04:53:33.636Z,99762.22
2023-01-13T04:55:35.821Z,99747.47
2023-01-13T04:57:37.957Z,99745.53
2023-01-13T04:59:42.124Z,99757.34
2023-01-13T05:01:44.324Z,99769.50
2023-01-13T05:03:46.548Z,99765.63
2023-01-13T05:05:52.241Z,99744.56
2023-01-13T05:07:54.450Z,99767.06
2023-01-13T05:09:56.698Z,99775.31
2023-01-13T05:12:19.539Z,99773.72
2023-01-13T05:14:40.397Z,99764.66
2023-01-13T05:17:00.448Z,99754.09
2023-01-13T05:19:02.591Z,99753.78
2023-01-13T05:21:04.672Z,99753.94
2023-01-13T05:23:25.457Z,99757.19
2023-01-13T05:25:28.278Z,99765.13
2023-01-13T05:27:33.740Z,99742.78
2023-01-13T05:29:38.473Z,99785.66
2023-01-13T05:31:40.586Z,99760.41
2023-01-13T05:33:42.694Z,99768.69
2023-01-13T05:35:45.820Z,99772.56
2023-01-13T05:37:48.009Z,99749.41
2023-01-13T05:40:08.854Z,99763.16
2023-01-13T05:42:29.605Z,99780.50
2023-01-13T05:44:31.677Z,99771.59
2023-01-13T05:46:33.930Z,99780.97
2023-01-13T05:48:42.926Z,99778.56
2023-01-13T05:50:46.043Z,99774.50
2023-01-13T05:52:48.503Z,99777.75
2023-01-13T05:54:51.737Z,99788.75
2023-01-13T05:56:53.870Z,99788.91
2023-01-13T05:58:55.917Z,99812.41
2023-01-13T06:01:02.733Z,99769.50
2023-01-13T06:03:05.197Z,99778.22
2023-01-13T06:05:07.901Z,99786.81
2023-01-13T06:07:12.470Z,99766.75
2023-01-13T06:09:14.793Z,99775.31
2023-01-13T06:11:16.920Z,99780.81
2023-01-13T06:13:18.973Z,99778.88
2023-01-13T06:15:21.235Z,99787.94
2023-01-13T06:17:23.307Z,99778.88
2023-01-13T06:19:25.370Z,99772.56
2023-01-13T06:21:27.394Z,99797.34
2023-01-13T06:23:29.714Z,99804.78
2023-01-13T06:26:04.749Z,99769.66
2023-01-13T06:28:06.918Z,99783.41
2023-01-13T06:30:10.056Z,99783.41
2023-01-13T06:32:22.494Z,99783.91
2023-01-13T06:34:24.535Z,99790.25
2023-01-13T06:36:30.942Z,99777.25
2023-01-13T06:38:35.915Z,99799.63
2023-01-13T06:40:38.019Z,99812.72
2023-01-13T06:42:58.527Z,99787.78
2023-01-13T06:45:00.672Z,99770.47
2023-01-13T06:47:02.728Z,99785.50
2023-01-13T06:49:05.347Z,99802.03
2023-01-13T06:51:07.351Z,99782.75
2023-01-13T06:53:10.059Z,99785.50
2023-01-13T06:55:12.073Z,99788.25
2023-01-13T06:57:14.184Z,99787.13
2023-01-13T06:59:16.215Z,99792.66
2023-01-13T07:01:18.399Z,99787.94
2023-01-13T07:03:20.626Z,99800.59
2023-01-13T07:05:22.742Z,99807.53
2023-01-13T07:07:24.822Z,99806.41
2023-01-13T07:09:26.987Z,99804.94
2023-01-13T07:11:29.122Z,99783.72
2023-01-13T07:13:49.765Z,99793.47
2023-01-13T07:16:00.996Z,99805.75
2023-01-13T07:18:03.362Z,99806.56
2023-01-13T07:20:06.222Z,99794.28
2023-01-13T07:22:08.384Z,99820.50
2023-01-13T07:24:10.504Z,99822.28
2023-01-13T07:26:12.710Z,99806.25
2023-01-13T07:28:15.042Z,99797.66
2023-01-13T07:30:17.525Z,99811.75
2023-01-13T07:32:19.685Z,99825.03
2023-01-13T07:34:21.875Z,99790.53
2023-01-13T07:36:24.007Z,99817.75
2023-01-13T07:38:26.699Z,99808.66
2023-01-13T07:40:28.725Z,99801.53
2023-01-13T07:42:49.370Z,99805.44
2023-01-13T07:44:51.483Z,99804.44
2023-01-13T07:46:53.528Z,99822.13
2023-01-13T07:48:55.625Z,99824.53
2023-01-13T07:51:01.626Z,99826.47
2023-01-13T07:53:04.100Z,99818.22
2023-01-13T07:55:06.779Z,99829.22
2023-01-13T07:57:09.150Z,99840.75
2023-01-13T07:59:11.255Z,99825.00
2023-01-13T08:01:14.112Z,99817.41
2023-01-13T08:23:44.292Z,99854.28
2023-01-13T08:25:46.420Z,99849.13
2023-01-13T08:27:50.059Z,99873.91
2023-01-13T08:29:52.283Z,99853.47
2023-01-13T08:31:54.357Z,99873.91
2023-01-13T08:33:56.387Z,99840.88
2023-01-13T08:35:58.683Z,99844.75
2023-01-13T08:38:00.772Z,99849.13
2023-01-13T08:40:02.847Z,99842.00
2023-01-13T08:42:05.401Z,99859.50
2023-01-13T08:44:09.370Z,99857.56
2023-01-13T08:46:11.764Z,99883.63
2023-01-13T08:48:14.006Z,99855.72
2023-01-13T08:50:16.414Z,99846.69
2023-01-13T08:52:18.443Z,99866.75
2023-01-13T08:54:20.703Z,99859.00
2023-01-13T08:56:23.009Z,99870.16
2023-01-13T08:58:25.345Z,99872.91
2023-01-13T09:00:27.650Z,99876.97
2023-01-13T09:02:29.839Z,99886.03
2023-01-13T09:04:32.035Z,99864.47
2023-01-13T09:06:34.410Z,99883.44
2023-01-13T09:08:36.517Z,99867.03
2023-01-13T09:10:40.490Z,99874.16
2023-01-13T09:13:01.163Z,99867.53
2023-01-13T09:15:04.337Z,99872.06
2023-01-13T09:17:07.621Z,99867.84
2023-01-13T09:19:09.633Z,99876.44
2023-01-13T09:21:12.597Z,99865.44
2023-01-13T09:23:14.652Z,99855.34
2023-01-13T09:25:16.794Z,99867.34
2023-01-13T09:27:18.868Z,99878.34
2023-01-13T09:29:21.114Z,99867.84
2023-01-13T09:31:23.304Z,99866.00
2023-01-13T09:33:44.263Z,99856.09
2023-01-13T09:35:46.297Z,99854.44
2023-01-13T09:37:48.315Z,99875.19
2023-01-13T09:39:50.454Z,99882.78
2023-01-13T09:42:20.637Z,99860.06
2023-01-13T09:44:50.630Z,99864.28
2023-01-13T09:46:57.327Z,99847.22
2023-01-13T09:48:59.349Z,99840.03
2023-01-13T09:51:16.953Z,99848.44
2023-01-13T09:53:32.962Z,99838.00
2023-01-13T09:55:37.000Z,99857.47
2023-01-13T09:57:40.027Z,99849.00
2023-01-13T09:59:42.361Z,99859.84
2023-01-13T10:02:13.255Z,99861.59
2023-01-13T10:04:15.875Z,99848.06
2023-01-13T10:06:24.067Z,99846.25
2023-01-13T10:08:33.687Z,99853.84
2023-01-13T10:10:48.712Z,99848.75
2023-01-13T10:13:09.427Z,99835.69
2023-01-13T10:15:20.914Z,99844.81
2023-01-13T10:17:49.659Z,99834.59
2023-01-13T10:20:08.420Z,99823.59
2023-01-13T10:23:07.888Z,99827.19
2023-01-13T10:25:42.549Z,99815.31
2023-01-13T10:27:47.007Z,99820.66
2023-01-13T10:29:49.058Z,99841.34
2023-01-13T10:31:53.080Z,99819.25
2023-01-13T10:34:00.004Z,99828.81
2023-01-13T10:36:14.128Z,99817.75
2023-01-13T10:38:31.199Z,99818.72
2023-01-13T10:40:33.703Z,99832.03
2023-01-13T10:42:35.690Z,99832.84
2023-01-13T10:44:57.461Z,99828.13
2023-01-13T10:46:59.708Z,99825.81
2023-01-13T10:49:04.438Z,99822.75
2023-01-13T10:51:25.447Z,99839.69
2023-01-13T10:53:28.782Z,99813.22
2023-01-13T10:55:33.934Z,99835.44
2023-01-13T10:57:39.131Z,99834.84
2023-01-13T10:59:41.275Z,99835.66
2023-01-13T11:02:24.352Z,99829.41
2023-01-13T11:04:42.810Z,99843.34
2023-01-13T11:06:47.147Z,99837.53
2023-01-13T11:08:50.510Z,99817.75
2023-01-13T11:10:58.165Z,99844.91
2023-01-13T11:13:18.439Z,99853.53
2023-01-13T11:15:25.096Z,99823.97
2023-01-13T11:17:40.678Z,99844.28
2023-01-13T11:20:05.231Z,99838.53
2023-01-13T11:22:17.599Z,99830.09
2023-01-13T11:24:37.382Z,99819.94
2023-01-13T11:26:57.050Z,99835.22
2023-01-13T11:29:05.977Z,99821.13
2023-01-13T11:31:37.325Z,99822.16
2023-01-13T11:34:04.926Z,99813.75
2023-01-13T11:36:28.792Z,99812.63
2023-01-13T11:38:47.849Z,99794.91
2023-01-13T11:40:49.986Z,99792.63
2023-01-13T11:43:02.188Z,99801.00
2023-01-13T11:45:38.703Z,99790.91
2023-01-13T11:47:40.758Z,99796.59
2023-01-13T11:49:48.551Z,99799.88
2023-01-13T11:52:03.234Z,99807.69
2023-01-13T11:54:41.340Z,99818.22
2023-01-13T11:57:51.343Z,99827.47
2023-01-13T12:00:28.117Z,99814.06
2023-01-13T12:02:48.982Z,99815.75
2023-01-13T12:04:56.207Z,99807.72
2023-01-13T12:07:41.113Z,99797.00
2023-01-13T12:10:02.236Z,99830.13
2023-01-13T12:12:27.566Z,99806.44
2023-01-13T12:15:04.107Z,99811.28
2023-01-13T12:17:13.344Z,99821.38
2023-01-13T12:19:29.363Z,99811.16
2023-01-13T12:21:56.383Z,99810.66
2023-01-13T12:24:48.196Z,99819.28
2023-01-13T12:26:57.335Z,99819.63
2023-01-13T12:29:02.001Z,99829.41
2023-01-13T12:31:04.292Z,99812.00
2023-01-13T12:33:52.096Z,99813.97
2023-01-13T12:36:19.873Z,99804.34
2023-01-13T12:39:02.046Z,99810.66
2023-01-13T12:41:27.179Z,99807.69
2023-01-13T12:43:48.131Z,99823.78
2023-01-13T12:45:50.214Z,99803.66
2023-01-13T12:47:52.276Z,99803.31
2023-01-13T12:49:54.431Z,99812.06
2023-01-13T12:51:56.412Z,99809.19
2023-01-13T12:54:40.968Z,99831.84
2023-01-13T12:56:44.825Z,99821.13
2023-01-13T12:58:46.890Z,99821.78
2023-01-13T13:01:00.803Z,99813.38
2023-01-13T13:03:18.595Z,99827.72
2023-01-13T13:05:24.437Z,99797.56
2023-01-13T13:07:41.900Z,99801.88
2023-01-13T13:10:06.203Z,99814.91
2023-01-13T13:13:00.743Z,99798.53
2023-01-13T13:15:05.560Z,99814.13
2023-01-13T13:17:29.425Z,99826.66
2023-01-13T13:19:31.359Z,99833.66
2023-01-13T13:22:14.150Z,99825.59
2023-01-13T13:24:18.239Z,99824.44
2023-01-13T13:26:46.823Z,99839.44
2023-01-13T13:29:31.009Z,99830.03
2023-01-13T13:31:55.988Z,99827.25
2023-01-13T13:34:15.602Z,99843.22
2023-01-13T13:36:25.118Z,99843.88
2023-01-13T13:39:42.213Z,99839.03
2023-01-13T13:42:05.876Z,99847.63
2023-01-13T13:44:58.366Z,99847.84
2023-01-13T13:47:02.725Z,99853.66
2023-01-13T13:49:04.752Z,99847.22
2023-01-13T13:51:31.610Z,99847.53
2023-01-13T13:53:40.358Z,99837.53
2023-01-13T13:55:51.289Z,99842.53
2023-01-13T13:57:55.037Z,99844.31
2023-01-13T13:59:59.133Z,99840.28
2023-01-13T14:02:25.234Z,99823.28
2023-01-13T14:04:33.137Z,99810.16
2023-01-13T14:06:35.254Z,99811.94
2023-01-13T14:08:38.787Z,99821.19
2023-01-13T14:10:43.181Z,99831.09
2023-01-13T14:12:45.302Z,99852.69
2023-01-13T14:14:48.047Z,99857.72
2023-01-13T14:16:51.834Z,99857.59
2023-01-13T14:18:53.858Z,99842.84
2023-01-13T14:21:04.889Z,99841.22
2023-01-13T14:23:07.028Z,99828.59
2023-01-13T14:25:31.255Z,99838.16
2023-01-13T14:27:34.860Z,99824.88
2023-01-13T14:29:37.642Z,99821.81
2023-01-13T14:31:39.801Z,99809.97
2023-01-13T14:33:46.994Z,99813.41
2023-01-13T14:36:22.991Z,99828.34
2023-01-13T14:38:25.037Z,99837.38
2023-01-13T14:40:46.975Z,99838.53
2023-01-13T14:43:17.814Z,99857.97
2023-01-13T14:45:27.009Z,99847.63
2023-01-13T14:47:32.340Z,99837.41
2023-01-13T14:49:42.479Z,99839.69
2023-01-13T14:51:44.913Z,99854.59
2023-01-13T14:53:47.406Z,99858.38
2023-01-13T14:55:50.206Z,99853.16
2023-01-13T14:57:52.499Z,99854.94
2023-01-13T15:00:15.598Z,99859.66
2023-01-13T15:02:29.796Z,99854.31
2023-01-13T15:04:34.246Z,99849.94
2023-01-13T15:06:37.585Z,99851.41
2023-01-13T15:08:39.652Z,99872.63
2023-01-13T15:10:55.499Z,99849.66
2023-01-13T15:12:59.395Z,99864.09
2023-01-13T15:15:03.597Z,99868.28
2023-01-13T15:17:16.359Z,99856.47
2023-01-13T15:19:18.539Z,99862.28
2023-01-13T15:21:20.901Z,99857.09
2023-01-13T15:23:23.151Z,99860.50
2023-01-13T15:25:25.227Z,99856.81
2023-01-13T15:27:27.344Z,99858.28
2023-01-13T15:29:29.549Z,99865.72
2023-01-13T15:31:31.745Z,99864.41
2023-01-13T15:33:33.842Z,99875.28
2023-01-13T15:35:35.908Z,99881.56
2023-01-13T15:37:37.947Z,99866.53
2023-01-13T15:39:40.083Z,99879.16
2023-01-13T15:42:00.843Z,99875.94
2023-01-13T15:44:21.530Z,99879.34
2023-01-13T15:46:38.753Z,99896.63
2023-01-13T15:48:40.847Z,99895.34
2023-01-13T15:50:44.022Z,99892.94
2023-01-13T15:52:46.136Z,99894.88
2023-01-13T15:54:48.989Z,99893.56
2023-01-13T15:56:51.100Z,99886.91
2023-01-13T15:58:53.220Z,99899.56
2023-01-13T16:00:55.774Z,99902.63
2023-01-13T16:02:58.473Z,99894.34
2023-01-13T16:05:00.672Z,99897.75
2023-01-13T16:07:02.723Z,99903.91
2023-01-13T16:09:05.142Z,99895.66
2023-01-13T16:11:08.973Z,99906.66
2023-01-13T16:13:14.688Z,99918.66
2023-01-13T16:15:17.273Z,99913.63
2023-01-13T16:17:21.072Z,99904.56
2023-01-13T16:19:23.211Z,99896.31
2023-01-13T16:21:25.304Z,99921.06
2023-01-13T16:23:27.606Z,99912.97
2023-01-13T16:25:29.706Z,99918.00
2023-01-13T16:27:31.738Z,99921.56
2023-01-13T16:29:34.015Z,99920.75
2023-01-13T16:31:36.307Z,99926.09
2023-01-13T16:33:38.360Z,99931.59
2023-01-13T16:36:09.708Z,99934.53
2023-01-13T16:38:02.571Z,99943.25
2023-01-13T16:40:05.040Z,99954.91
2023-01-13T16:42:07.144Z,99944.72
2023-01-13T16:44:09.241Z,99953.59
2023-01-13T16:46:28.409Z,99948.41
2023-01-13T16:48:30.522Z,99958.94
2023-01-13T16:50:41.490Z,99958.75
2023-01-13T16:52:43.513Z,99963.16
2023-01-13T16:54:45.609Z,99957.13
2023-01-13T16:56:47.659Z,99966.84
2023-01-13T16:58:50.669Z,99965.72
2023-01-13T17:00:53.011Z,99974.91
2023-01-13T17:02:55.225Z,99965.38
2023-01-13T17:04:57.291Z,99965.19
2023-01-13T17:07:10.141Z,99980.56
2023-01-13T17:09:17.311Z,99971.66
2023-01-13T17:11:20.198Z,99981.84
2023-01-13T17:13:22.422Z,99970.53
2023-01-13T17:15:24.462Z,99964.53
2023-01-13T17:17:35.804Z,99976.47
2023-01-13T17:19:37.894Z,99974.53
2023-01-13T17:21:40.102Z,99973.44
2023-01-13T17:23:42.278Z,99981.50
2023-01-13T17:25:47.584Z,99982.31
2023-01-13T17:27:49.645Z,99988.44
2023-01-13T17:29:51.703Z,99987.31
2023-01-13T17:31:53.932Z,99979.56
2023-01-13T17:33:56.066Z,99974.88
2023-01-13T17:35:58.095Z,99969.50
2023-01-13T17:38:01.977Z,99975.34
2023-01-13T17:40:04.409Z,99988.09
2023-01-13T17:42:06.491Z,99980.16
2023-01-13T17:44:10.508Z,99984.53
2023-01-13T17:46:13.359Z,99977.25
2023-01-13T17:48:15.440Z,99970.41
2023-01-13T17:50:17.912Z,99981.75
2023-01-13T17:52:20.373Z,99982.69
2023-01-13T17:54:22.700Z,99976.84
2023-01-13T17:56:25.347Z,99978.47
2023-01-13T17:58:27.353Z,100008.50
2023-01-13T18:00:29.906Z,99994.75
2023-01-13T18:02:33.477Z,100021.94
2023-01-13T18:04:35.586Z,99996.22
2023-01-13T18:06:37.629Z,99992.16
2023-01-13T18:08:40.620Z,99983.44
2023-01-13T18:10:42.701Z,99980.81
2023-01-13T18:12:44.733Z,99978.38
2023-01-13T18:14:46.880Z,99987.56
2023-01-13T18:16:48.932Z,99980.44
2023-01-13T18:18:51.652Z,99971.22
2023-01-13T18:21:20.271Z,99977.66
2023-01-13T18:23:41.126Z,99991.53
2023-01-13T18:26:01.903Z,99987.47
2023-01-13T18:28:04.784Z,99996.19
2023-01-13T18:30:07.524Z,99992.97
2023-01-13T18:32:09.645Z,99994.34
2023-01-13T18:34:11.723Z,99991.41
2023-01-13T18:36:13.834Z,99994.78
2023-01-13T18:38:24.981Z,99994.31
2023-01-13T18:40:27.136Z,100008.97
2023-01-13T18:42:47.590Z,100013.34
2023-01-13T18:44:50.878Z,100012.94
2023-01-13T18:46:52.884Z,100012.16
2023-01-13T18:48:54.972Z,100010.53
2023-01-13T18:50:57.045Z,100012.78
2023-01-13T18:52:59.075Z,100005.16
2023-01-13T18:55:01.156Z,100014.00
2023-01-13T18:57:03.353Z,100006.91
2023-01-13T18:59:05.530Z,100005.28
2023-01-13T19:01:07.823Z,100006.53
2023-01-13T19:03:10.001Z,100016.69
2023-01-13T19:05:12.028Z,100023.31
2023-01-13T19:07:22.225Z,100020.38
2023-01-13T19:09:26.737Z,100013.88
2023-01-13T19:11:31.942Z,100007.38
2023-01-13T19:13:35.468Z,100018.47
2023-01-13T19:15:37.931Z,100027.53
2023-01-13T19:17:40.067Z,100023.44
2023-01-13T19:19:50.953Z,100025.50
2023-01-13T19:21:53.594Z,100016.78
2023-01-13T19:23:56.364Z,100023.06
2023-01-13T19:26:01.954Z,100021.25
2023-01-13T19:28:04.322Z,100027.75
2023-01-13T19:30:07.362Z,100029.28
2023-01-13T19:32:09.659Z,100033.66
2023-01-13T19:34:12.667Z,100044.13
2023-01-13T19:36:14.709Z,100056.22
2023-01-13T19:38:16.780Z,100041.69
2023-01-13T19:40:18.928Z,100034.88
2023-01-13T19:42:39.159Z,100031.03
2023-01-13T19:44:59.474Z,100043.09
2023-01-13T19:47:01.539Z,100029.41
2023-01-13T19:49:03.650Z,100040.84
2023-01-13T19:51:06.399Z,100052.97
2023-01-13T19:53:14.671Z,100049.69
2023-01-13T19:55:16.769Z,100050.53
2023-01-13T19:57:18.892Z,100049.41
2023-01-13T19:59:29.146Z,100054.38
2023-01-13T20:01:36.215Z,100067.31
2023-01-13T20:03:38.375Z,100052.78
2023-01-13T20:05:40.517Z,100055.31
2023-01-13T20:07:42.546Z,100053.88
2023-01-13T20:09:47.299Z,100061.63
2023-01-13T20:11:52.898Z,100065.97
2023-01-13T20:13:54.977Z,100065.13
2023-01-13T20:15:57.043Z,100068.81
2023-01-13T20:18:00.579Z,100070.75
2023-01-13T20:20:04.175Z,100073.50
2023-01-13T20:22:07.147Z,100077.53
2023-01-13T20:24:16.920Z,100068.81
2023-01-13T20:26:20.111Z,100080.59
2023-01-13T20:28:22.180Z,100069.13
2023-01-13T20:30:24.357Z,100069.13
2023-01-13T20:32:26.430Z,100085.56
2023-01-13T20:34:28.535Z,100103.38
2023-01-13T20:36:34.004Z,100089.44
2023-01-13T20:38:38.941Z,100093.00
2023-01-13T20:40:40.973Z,100091.59
2023-01-13T20:42:45.288Z,100098.50
2023-01-13T20:44:47.534Z,100093.50
2023-01-13T20:46:49.607Z,100085.28
2023-01-13T20:48:52.982Z,100088.31
2023-01-13T20:50:57.884Z,100101.25
2023-01-13T20:52:59.919Z,100102.56
2023-01-13T20:55:02.513Z,100102.56
2023-01-13T20:57:05.311Z,100094.31
2023-01-13T20:59:07.818Z,100097.88
2023-01-13T21:01:10.147Z,100098.06
2023-01-13T21:03:12.755Z,100107.09
2023-01-13T21:05:15.723Z,100120.75
2023-01-13T21:07:19.616Z,100117.69
2023-01-13T21:09:23.452Z,100103.66
2023-01-13T21:11:45.358Z,100110.97
2023-01-13T21:14:06.177Z,100104.38
2023-01-13T21:16:10.164Z,100103.75
2023-01-13T21:18:30.954Z,100132.41
2023-01-13T21:20:37.111Z,100112.88
2023-01-13T21:22:39.380Z,100125.72
2023-01-13T21:24:41.478Z,100133.13
2023-01-13T21:26:43.787Z,100114.13
2023-01-13T21:28:46.678Z,100106.69
2023-01-13T21:30:50.107Z,100114.31
2023-01-13T21:32:52.161Z,100109.94
2023-01-13T21:34:54.420Z,100124.97
2023-01-13T21:37:16.079Z,100106.09
2023-01-13T21:39:38.344Z,100122.03
2023-01-13T21:41:59.180Z,100134.16
2023-01-13T21:44:39.424Z,100132.19
2023-01-13T21:47:00.334Z,100115.72
2023-01-13T21:49:02.700Z,100122.84
2023-01-13T21:51:05.067Z,100155.50
2023-01-13T21:53:08.163Z,100148.56
2023-01-13T21:55:20.402Z,100137.06
2023-01-13T21:57:22.695Z,100144.19
2023-01-13T21:59:24.728Z,100136.28
2023-01-13T22:01:26.913Z,100136.28
2023-01-13T22:03:28.999Z,100125.59
2023-01-13T22:05:31.416Z,100130.59
2023-01-13T22:07:35.420Z,100139.94
2023-01-13T22:09:37.611Z,100154.47
2023-01-13T22:11:40.545Z,100142.38
2023-01-13T22:14:01.030Z,100143.78
2023-01-13T22:16:04.773Z,100160.03
2023-01-13T22:18:07.112Z,100131.81
2023-01-13T22:20:10.981Z,100144.72
2023-01-13T22:22:14.521Z,100134.03
2023-01-13T22:24:33.032Z,100140.66
2023-01-13T22:26:35.040Z,100137.09
2023-01-13T22:28:42.562Z,100143.47
2023-01-13T22:30:46.275Z,100135.56
2023-01-13T22:32:48.507Z,100130.91
2023-01-13T22:34:50.607Z,100140.25
2023-01-13T22:36:52.741Z,100143.06
2023-01-13T22:38:56.375Z,100142.78
2023-01-13T22:40:59.365Z,100146.44
2023-01-13T22:43:01.539Z,100133.31
2023-01-13T22:45:04.255Z,100153.94
2023-01-13T22:47:08.539Z,100138.91
2023-01-13T22:49:13.001Z,100142.78
2023-01-13T22:51:16.328Z,100147.75
2023-01-13T22:53:18.746Z,100153.03
2023-01-13T22:55:20.870Z,100143.16
2023-01-13T22:57:23.970Z,100141.84
2023-01-13T22:59:26.558Z,100148.47
2023-01-13T23:01:32.147Z,100148.56
2023-01-13T23:03:34.235Z,100141.16
2023-01-13T23:05:36.855Z,100142.34
2023-01-13T23:07:41.620Z,100144.00
2023-01-13T23:09:43.662Z,100147.84
2023-01-13T23:11:47.751Z,100169.56
2023-01-13T23:14:03.580Z,100153.41
2023-01-13T23:16:08.347Z,100155.63
2023-01-13T23:18:10.383Z,100147.41
2023-01-13T23:20:13.743Z,100147.19
2023-01-13T23:22:15.775Z,100147.53
2023-01-13T23:24:18.132Z,100159.59
2023-01-13T23:26:20.848Z,100159.91
2023-01-13T23:28:23.126Z,100150.06
2023-01-13T23:30:25.157Z,100162.94
2023-01-13T23:32:27.757Z,100160.31
2023-01-13T23:34:29.815Z,100148.19
2023-01-13T23:36:32.162Z,100174.00
2023-01-13T23:38:34.467Z,100180.00
2023-01-13T23:40:36.509Z,100163.81
2023-01-13T23:42:38.580Z,100165.84
2023-01-13T23:44:40.703Z,100159.88
2023-01-13T23:46:42.759Z,100159.25
2023-01-13T23:48:44.810Z,100154.88
2023-01-13T23:51:00.522Z,100148.91
2023-01-13T23:53:02.556Z,100155.00
2023-01-13T23:55:05.059Z,100151.72
2023-01-13T23:57:07.707Z,100146.56
2023-01-13T23:59:09.783Z,100160.25
